createdAt,value
2019-04-21T00:01:57.652Z,10.80
2019-04-21T00:04:38.048Z,10.79
2019-04-21T00:07:14.495Z,10.51
2019-04-21T00:09:50.701Z,10.39
2019-04-21T00:12:13.796Z,10.38
2019-04-21T00:14:31.630Z,10.46
2019-04-21T00:16:57.485Z,10.47
2019-04-21T00:19:28.182Z,10.44
2019-04-21T00:22:04.919Z,10.30
2019-04-21T00:24:33.716Z,10.21
2019-04-21T00:27:05.305Z,10.30
2019-04-21T00:29:45.427Z,10.39
2019-04-21T00:32:03.001Z,10.40
2019-04-21T00:34:17.638Z,10.37
2019-04-21T00:36:55.969Z,10.25
2019-04-21T00:39:43.877Z,10.36
2019-04-21T00:42:08.625Z,10.13
2019-04-21T00:44:25.686Z,10.14
2019-04-21T00:46:56.400Z,10.22
2019-04-21T00:49:31.129Z,10.35
2019-04-21T00:52:38.930Z,10.46
2019-04-21T00:55:12.269Z,10.43
2019-04-21T00:57:33.791Z,10.32
2019-04-21T01:00:00.802Z,10.18
2019-04-21T01:02:27.989Z,10.14
2019-04-21T01:05:02.037Z,10.17
2019-04-21T01:07:28.176Z,10.13
2019-04-21T01:09:48.876Z,10.26
2019-04-21T01:12:26.823Z,10.23
2019-04-21T01:14:55.436Z,10.24
2019-04-21T01:17:22.853Z,10.27
2019-04-21T01:19:47.731Z,10.27
2019-04-21T01:21:58.076Z,10.15
2019-04-21T01:24:34.502Z,9.89
2019-04-21T01:27:10.061Z,9.69
2019-04-21T01:29:45.838Z,9.82
2019-04-21T01:32:24.179Z,9.72
2019-04-21T01:34:49.731Z,9.62
2019-04-21T01:37:10.898Z,9.52
2019-04-21T01:39:51.556Z,9.62
2019-04-21T01:42:15.739Z,9.55
2019-04-21T01:44:44.994Z,9.53
2019-04-21T01:47:08.625Z,9.43
2019-04-21T01:49:29.643Z,9.55
2019-04-21T01:52:17.608Z,9.60
2019-04-21T01:55:00.232Z,9.48
2019-04-21T01:57:33.394Z,9.41
2019-04-21T01:59:54.912Z,9.58
2019-04-21T02:02:29.377Z,9.34
2019-04-21T02:05:05.560Z,9.34
2019-04-21T02:07:27.044Z,9.19
2019-04-21T02:09:59.966Z,9.21
2019-04-21T02:12:26.563Z,9.09
2019-04-21T02:15:09.501Z,8.97
2019-04-21T02:17:25.099Z,9.07
2019-04-21T02:19:50.363Z,9.07
2019-04-21T02:22:27.178Z,9.20
2019-04-21T02:24:58.021Z,9.13
2019-04-21T02:27:26.598Z,9.08
2019-04-21T02:29:54.962Z,9.11
2019-04-21T02:35:03.955Z,8.90
2019-04-21T02:37:36.986Z,8.98
2019-04-21T02:42:27.821Z,9.05
2019-04-21T02:44:51.806Z,9.07
2019-04-21T02:47:37.043Z,9.09
2019-04-21T02:49:59.556Z,9.14
2019-04-21T02:54:53.435Z,8.87
2019-04-21T02:57:19.023Z,8.78
2019-04-21T03:00:00.025Z,8.87
2019-04-21T03:05:28.267Z,8.70
2019-04-21T03:07:55.324Z,8.77
2019-04-21T03:10:26.536Z,8.64
2019-04-21T03:12:45.995Z,8.47
2019-04-21T03:15:21.303Z,8.43
2019-04-21T03:18:08.257Z,8.32
2019-04-21T03:20:25.526Z,8.33
2019-04-21T03:23:07.871Z,8.50
2019-04-21T03:25:25.266Z,8.56
2019-04-21T03:28:00.796Z,8.49
2019-04-21T03:37:39.861Z,8.24
2019-04-21T03:40:18.693Z,8.29
2019-04-21T03:42:38.527Z,8.39
2019-04-21T03:45:19.954Z,8.37
2019-04-21T03:47:36.052Z,8.39
2019-04-21T03:52:42.548Z,8.31
2019-04-21T04:03:35.136Z,8.22
2019-04-21T04:06:03.741Z,7.87
2019-04-21T04:08:43.606Z,7.77
2019-04-21T04:11:05.083Z,7.67
2019-04-21T04:13:29.572Z,7.68
2019-04-21T04:15:56.443Z,7.60
2019-04-21T04:18:39.221Z,7.56
2019-04-21T04:20:53.427Z,7.66
2019-04-21T04:23:20.139Z,7.70
2019-04-21T04:25:51.569Z,7.76
2019-04-21T04:28:19.108Z,7.56
2019-04-21T04:30:52.786Z,7.42
2019-04-21T04:33:21.264Z,7.53
2019-04-21T04:38:26.424Z,7.62
2019-04-21T04:40:55.955Z,7.56
2019-04-21T04:45:56.684Z,7.71
2019-04-21T04:48:20.220Z,7.53
2019-04-21T04:53:20.337Z,7.64
2019-04-21T04:55:48.164Z,7.75
2019-04-21T04:58:44.322Z,7.84
2019-04-21T05:00:43.405Z,7.61
2019-04-21T05:03:19.181Z,7.56
2019-04-21T05:09:03.355Z,7.57
2019-04-21T05:11:30.904Z,7.86
2019-04-21T05:13:54.959Z,8.05
2019-04-21T05:16:34.631Z,8.19
2019-04-21T05:19:00.726Z,8.27
2019-04-21T05:21:24.835Z,8.43
2019-04-21T05:23:41.336Z,8.48
2019-04-21T05:26:01.587Z,8.63
2019-04-21T05:28:29.891Z,8.72
2019-04-21T05:31:19.791Z,8.79
2019-04-21T05:33:49.475Z,8.85
2019-04-21T05:36:27.864Z,8.91
2019-04-21T05:39:06.873Z,9.06
2019-04-21T05:41:26.617Z,9.07
2019-04-21T05:44:03.781Z,9.14
2019-04-21T05:46:32.254Z,9.26
2019-04-21T05:49:05.846Z,9.38
2019-04-21T05:51:30.613Z,9.42
2019-04-21T05:54:14.975Z,9.48
2019-04-21T05:56:36.530Z,9.58
2019-04-21T05:59:02.074Z,9.73
2019-04-21T06:01:46.751Z,9.97
2019-04-21T06:04:11.399Z,10.29
2019-04-21T06:06:37.546Z,10.51
2019-04-21T06:09:00.908Z,10.66
2019-04-21T06:11:30.929Z,10.92
2019-04-21T06:14:14.019Z,11.11
2019-04-21T06:16:30.368Z,11.29
2019-04-21T06:18:58.631Z,11.20
2019-04-21T06:21:27.554Z,11.21
2019-04-21T06:24:10.167Z,11.39
2019-04-21T06:28:51.810Z,12.00
2019-04-21T06:31:40.819Z,12.19
2019-04-21T06:33:48.881Z,12.32
2019-04-21T06:36:41.417Z,12.34
2019-04-21T06:44:14.239Z,12.83
2019-04-21T06:46:30.930Z,13.01
2019-04-21T06:51:27.923Z,12.97
2019-04-21T06:53:59.733Z,13.13
2019-04-21T06:56:23.816Z,13.19
2019-04-21T06:58:51.430Z,13.57
2019-04-21T07:01:26.533Z,13.63
2019-04-21T07:04:01.676Z,13.87
2019-04-21T07:06:13.165Z,14.03
2019-04-21T07:08:54.379Z,14.24
2019-04-21T07:11:08.710Z,14.42
2019-04-21T07:13:41.511Z,14.51
2019-04-21T07:16:12.020Z,14.59
2019-04-21T07:18:41.157Z,14.77
2019-04-21T07:21:08.221Z,15.06
2019-04-21T07:23:39.835Z,14.89
2019-04-21T07:26:05.686Z,14.92
2019-04-21T07:28:40.272Z,15.08
2019-04-21T07:31:15.503Z,15.29
2019-04-21T07:36:07.942Z,15.58
2019-04-21T07:38:27.231Z,15.74
2019-04-21T07:40:54.902Z,15.73
2019-04-21T07:43:24.648Z,15.84
2019-04-21T07:45:56.913Z,15.88
2019-04-21T07:48:31.308Z,16.14
2019-04-21T07:53:59.648Z,16.54
2019-04-21T07:56:06.491Z,16.57
2019-04-21T07:58:53.446Z,16.52
2019-04-21T08:01:18.263Z,16.73
2019-04-21T08:03:46.133Z,16.83
2019-04-21T08:06:18.872Z,16.69
2019-04-21T08:08:45.100Z,16.81
2019-04-21T08:11:10.961Z,17.15
2019-04-21T08:13:48.818Z,17.27
2019-04-21T08:16:12.787Z,17.21
2019-04-21T08:18:39.368Z,17.28
2019-04-21T08:21:08.600Z,17.26
2019-04-21T08:23:37.091Z,17.59
2019-04-21T08:26:12.144Z,17.79
2019-04-21T08:31:04.530Z,17.64
2019-04-21T08:33:38.707Z,17.99
2019-04-21T08:38:27.691Z,17.99
2019-04-21T08:41:01.952Z,18.10
2019-04-21T08:43:39.988Z,18.04
2019-04-21T08:46:13.842Z,18.15
2019-04-21T08:48:22.823Z,18.18
2019-04-21T08:51:12.928Z,18.50
2019-04-21T08:53:27.375Z,18.61
2019-04-21T08:56:16.453Z,18.40
2019-04-21T08:59:12.628Z,18.48
2019-04-21T09:02:01.379Z,18.60
2019-04-21T09:04:29.074Z,18.65
2019-04-21T09:07:05.160Z,19.02
2019-04-21T09:09:29.131Z,18.98
2019-04-21T09:12:01.615Z,19.27
2019-04-21T09:14:25.703Z,19.14
2019-04-21T09:16:53.655Z,19.38
2019-04-21T09:19:35.278Z,19.43
2019-04-21T09:21:57.473Z,19.37
2019-04-21T09:24:24.622Z,19.59
2019-04-21T09:26:49.253Z,19.48
2019-04-21T09:29:10.905Z,19.64
2019-04-21T09:31:36.488Z,19.84
2019-04-21T09:34:03.175Z,20.18
2019-04-21T09:36:36.929Z,20.13
2019-04-21T09:39:05.548Z,20.29
2019-04-21T09:41:28.311Z,20.58
2019-04-21T09:43:57.529Z,20.91
2019-04-21T09:46:25.464Z,20.15
2019-04-21T09:48:59.244Z,20.37
2019-04-21T09:51:21.656Z,20.74
2019-04-21T09:53:58.765Z,20.78
2019-04-21T09:56:30.492Z,20.88
2019-04-21T09:58:51.704Z,20.99
2019-04-21T10:01:22.615Z,20.34
2019-04-21T10:03:48.703Z,20.31
2019-04-21T10:06:16.107Z,20.56
2019-04-21T10:08:43.046Z,20.82
2019-04-21T10:11:10.022Z,21.11
2019-04-21T10:13:37.409Z,21.51
2019-04-21T10:16:23.884Z,21.10
2019-04-21T10:18:52.320Z,21.65
2019-04-21T10:21:19.826Z,21.91
2019-04-21T10:23:47.960Z,22.21
2019-04-21T10:26:15.012Z,22.06
2019-04-21T10:28:43.315Z,22.23
2019-04-21T10:31:11.025Z,22.57
2019-04-21T10:33:38.131Z,22.76
2019-04-21T10:36:05.163Z,22.53
2019-04-21T10:38:38.940Z,22.36
2019-04-21T10:41:01.539Z,22.48
2019-04-21T10:43:29.254Z,21.88
2019-04-21T10:45:57.083Z,22.06
2019-04-21T10:48:25.201Z,22.32
2019-04-21T10:50:52.784Z,22.54
2019-04-21T10:53:23.055Z,22.85
2019-04-21T10:56:06.110Z,22.71
2019-04-21T10:58:22.600Z,23.23
2019-04-21T11:00:52.800Z,23.34
2019-04-21T11:03:46.660Z,23.04
2019-04-21T11:06:16.894Z,23.59
2019-04-21T11:08:47.598Z,23.45
2019-04-21T11:11:13.860Z,23.50
2019-04-21T11:13:42.180Z,22.92
2019-04-21T11:16:09.157Z,23.25
2019-04-21T11:18:36.164Z,23.57
2019-04-21T11:21:04.834Z,23.85
2019-04-21T11:23:33.105Z,23.38
2019-04-21T11:26:00.272Z,22.93
2019-04-21T11:28:27.361Z,23.01
2019-04-21T11:30:54.905Z,22.84
2019-04-21T11:33:22.832Z,22.81
2019-04-21T11:35:51.223Z,22.86
2019-04-21T11:38:26.628Z,23.11
2019-04-21T11:40:51.778Z,23.31
2019-04-21T11:43:19.760Z,22.79
2019-04-21T11:45:46.798Z,22.94
2019-04-21T11:48:24.212Z,23.41
2019-04-21T11:50:51.234Z,23.54
2019-04-21T11:53:18.931Z,23.48
2019-04-21T11:55:48.537Z,23.81
2019-04-21T11:58:15.981Z,24.13
2019-04-21T12:00:45.385Z,23.51
2019-04-21T12:03:15.232Z,23.44
2019-04-21T12:05:41.501Z,23.36
2019-04-21T12:08:21.343Z,23.15
2019-04-21T12:10:37.649Z,23.40
2019-04-21T12:13:07.378Z,24.56
2019-04-21T12:15:34.660Z,25.28
2019-04-21T12:18:02.170Z,25.50
2019-04-21T12:20:30.323Z,24.95
2019-04-21T12:22:57.534Z,25.04
2019-04-21T12:25:27.231Z,25.50
2019-04-21T12:27:54.399Z,25.60
2019-04-21T12:30:21.938Z,24.11
2019-04-21T12:32:53.897Z,24.13
2019-04-21T12:35:21.857Z,23.91
2019-04-21T12:37:49.331Z,23.74
2019-04-21T12:40:16.970Z,24.12
2019-04-21T12:42:45.456Z,24.03
2019-04-21T12:45:13.098Z,24.52
2019-04-21T12:47:41.806Z,25.15
2019-04-21T12:50:11.102Z,24.64
2019-04-21T12:52:38.154Z,25.22
2019-04-21T12:55:05.850Z,26.05
2019-04-21T12:57:33.323Z,26.11
2019-04-21T13:00:02.875Z,24.65
2019-04-21T13:02:30.028Z,24.87
2019-04-21T13:04:57.789Z,24.35
2019-04-21T13:07:25.760Z,24.00
2019-04-21T13:09:54.510Z,24.10
2019-04-21T13:12:22.875Z,24.35
2019-04-21T13:14:50.124Z,25.34
2019-04-21T13:17:17.331Z,25.19
2019-04-21T13:19:45.315Z,26.04
2019-04-21T13:22:12.421Z,24.42
2019-04-21T13:24:39.928Z,25.97
2019-04-21T13:27:08.875Z,26.45
2019-04-21T13:29:36.452Z,25.11
2019-04-21T13:32:05.169Z,25.25
2019-04-21T13:34:33.764Z,24.86
2019-04-21T13:37:01.560Z,25.00
2019-04-21T13:40:06.553Z,25.65
2019-04-21T13:42:13.432Z,25.63
2019-04-21T13:44:34.949Z,25.19
2019-04-21T13:47:02.755Z,26.01
2019-04-21T13:49:29.873Z,26.77
2019-04-21T13:51:57.013Z,25.73
2019-04-21T13:54:25.458Z,25.81
2019-04-21T13:56:52.542Z,26.41
2019-04-21T13:59:20.098Z,26.38
2019-04-21T14:01:47.827Z,25.65
2019-04-21T14:04:15.844Z,26.34
2019-04-21T14:06:44.562Z,25.02
2019-04-21T14:09:11.728Z,25.05
2019-04-21T14:11:38.715Z,25.23
2019-04-21T14:14:06.122Z,25.25
2019-04-21T14:16:34.033Z,25.28
2019-04-21T14:19:01.776Z,25.96
2019-04-21T14:21:29.392Z,25.14
2019-04-21T14:23:59.100Z,25.12
2019-04-21T14:26:26.713Z,25.72
2019-04-21T14:28:54.645Z,25.31
2019-04-21T14:31:22.231Z,25.18
2019-04-21T14:33:50.045Z,25.88
2019-04-21T14:36:17.179Z,26.17
2019-04-21T14:38:44.727Z,25.41
2019-04-21T14:41:12.444Z,25.82
2019-04-21T14:43:39.602Z,26.18
2019-04-21T14:46:13.203Z,26.37
2019-04-21T14:49:05.644Z,26.31
2019-04-21T14:51:49.208Z,26.68
2019-04-21T14:54:42.715Z,26.38
2019-04-21T14:57:11.356Z,26.42
2019-04-21T14:59:39.197Z,27.03
2019-04-21T15:02:07.613Z,26.76
2019-04-21T15:04:35.630Z,25.64
2019-04-21T15:07:03.404Z,25.58
2019-04-21T15:09:31.533Z,25.70
2019-04-21T15:12:00.091Z,25.44
2019-04-21T15:14:27.319Z,25.65
2019-04-21T15:16:54.556Z,26.60
2019-04-21T15:19:22.446Z,26.10
2019-04-21T15:21:50.219Z,26.59
2019-04-21T15:24:18.347Z,25.71
2019-04-21T15:26:46.449Z,25.80
2019-04-21T15:29:15.000Z,25.94
2019-04-21T15:31:44.654Z,26.21
2019-04-21T15:34:11.299Z,25.37
2019-04-21T15:36:39.986Z,25.31
2019-04-21T15:39:07.963Z,25.07
2019-04-21T15:41:34.974Z,25.17
2019-04-21T15:44:04.081Z,25.36
2019-04-21T15:46:33.896Z,24.82
2019-04-21T15:49:00.591Z,24.54
2019-04-21T15:51:28.081Z,24.41
2019-04-21T15:53:57.578Z,24.54
2019-04-21T15:56:36.942Z,24.66
2019-04-21T15:59:32.646Z,24.65
2019-04-21T16:02:19.376Z,24.56
2019-04-21T16:04:46.609Z,24.16
2019-04-21T16:07:14.074Z,25.06
2019-04-21T16:09:41.793Z,25.02
2019-04-21T16:12:09.681Z,25.02
2019-04-21T16:14:36.882Z,24.40
2019-04-21T16:17:05.370Z,24.23
2019-04-21T16:19:33.343Z,24.83
2019-04-21T16:22:03.161Z,24.60
2019-04-21T16:24:30.902Z,24.75
2019-04-21T16:27:01.730Z,24.74
2019-04-21T16:29:27.251Z,24.64
2019-04-21T16:31:55.234Z,24.68
2019-04-21T16:34:35.390Z,24.30
2019-04-21T16:36:51.807Z,24.32
2019-04-21T16:39:19.688Z,23.84
2019-04-21T16:41:46.828Z,23.64
2019-04-21T16:44:13.802Z,23.52
2019-04-21T16:46:41.287Z,23.71
2019-04-21T16:49:09.651Z,23.62
2019-04-21T16:51:37.986Z,23.29
2019-04-21T16:54:24.317Z,23.34
2019-04-21T16:57:03.726Z,23.18
2019-04-21T16:59:35.065Z,23.14
2019-04-21T17:02:02.903Z,23.15
2019-04-21T17:04:30.697Z,23.23
2019-04-21T17:06:58.944Z,23.34
2019-04-21T17:09:26.526Z,23.29
2019-04-21T17:11:58.063Z,23.19
2019-04-21T17:14:37.177Z,23.13
2019-04-21T17:17:15.836Z,23.16
2019-04-21T17:19:27.787Z,22.93
2019-04-21T17:21:49.893Z,22.79
2019-04-21T17:24:16.989Z,22.75
2019-04-21T17:26:44.723Z,22.83
2019-04-21T17:29:14.549Z,22.55
2019-04-21T17:31:41.740Z,22.54
2019-04-21T17:34:16.241Z,22.58
2019-04-21T17:36:41.569Z,22.62
2019-04-21T17:39:09.025Z,22.55
2019-04-21T17:41:42.463Z,22.53
2019-04-21T17:44:06.553Z,22.36
2019-04-21T17:46:44.100Z,22.23
2019-04-21T17:49:03.222Z,22.24
2019-04-21T17:51:49.388Z,22.16
2019-04-21T17:54:27.616Z,22.19
2019-04-21T17:57:12.049Z,21.99
2019-04-21T17:59:52.307Z,22.00
2019-04-21T18:02:03.700Z,21.85
2019-04-21T18:04:34.842Z,21.91
2019-04-21T18:07:26.190Z,21.59
2019-04-21T18:09:59.098Z,21.50
2019-04-21T18:12:16.623Z,21.41
2019-04-21T18:14:32.926Z,21.31
2019-04-21T18:17:00.362Z,21.15
2019-04-21T18:19:30.991Z,21.02
2019-04-21T18:22:23.976Z,20.99
2019-04-21T18:25:03.017Z,20.83
2019-04-21T18:27:21.971Z,20.82
2019-04-21T18:29:52.732Z,20.74
2019-04-21T18:32:26.394Z,20.60
2019-04-21T18:35:14.203Z,20.55
2019-04-21T18:38:15.395Z,20.45
2019-04-21T18:40:38.505Z,20.38
2019-04-21T18:46:13.500Z,20.10
2019-04-21T18:48:40.951Z,20.07
2019-04-21T18:51:27.661Z,20.04
2019-04-21T18:54:22.670Z,19.98
2019-04-21T18:56:31.530Z,19.80
2019-04-21T18:58:58.737Z,19.82
2019-04-21T19:01:28.270Z,19.72
2019-04-21T19:03:56.149Z,19.63
2019-04-21T19:06:43.901Z,19.65
2019-04-21T19:09:11.594Z,19.52
2019-04-21T19:11:32.922Z,19.44
2019-04-21T19:14:29.041Z,19.29
2019-04-21T19:16:47.577Z,19.39
2019-04-21T19:19:34.171Z,19.21
2019-04-21T19:21:34.080Z,19.19
2019-04-21T19:24:20.263Z,19.06
2019-04-21T19:26:51.071Z,18.96
2019-04-21T19:29:16.319Z,19.05
2019-04-21T19:31:39.759Z,19.00
2019-04-21T19:33:55.147Z,18.99
2019-04-21T19:36:17.214Z,18.81
2019-04-21T19:38:55.920Z,18.87
2019-04-21T19:41:28.175Z,18.82
2019-04-21T19:44:02.763Z,18.77
2019-04-21T19:46:28.120Z,18.63
2019-04-21T19:49:07.245Z,18.63
2019-04-21T19:51:23.201Z,18.60
2019-04-21T19:53:52.791Z,18.55
2019-04-21T19:58:47.490Z,18.50
2019-04-21T20:01:17.265Z,18.28
2019-04-21T20:03:48.663Z,18.29
2019-04-21T20:06:28.607Z,18.32
2019-04-21T20:08:59.189Z,18.19
2019-04-21T20:11:30.585Z,18.16
2019-04-21T20:14:27.481Z,18.12
2019-04-21T20:16:33.919Z,18.13
2019-04-21T20:18:44.663Z,17.96
2019-04-21T20:21:08.024Z,17.92
2019-04-21T20:23:38.990Z,17.88
2019-04-21T20:26:08.112Z,17.78
2019-04-21T20:28:45.524Z,17.78
2019-04-21T20:31:18.893Z,17.81
2019-04-21T20:33:52.691Z,17.70
2019-04-21T20:36:21.158Z,17.63
2019-04-21T20:38:40.388Z,17.61
2019-04-21T20:41:10.953Z,17.72
2019-04-21T20:43:45.857Z,17.54
2019-04-21T20:46:12.256Z,17.45
2019-04-21T20:48:35.618Z,17.39
2019-04-21T20:51:14.484Z,17.41
2019-04-21T20:53:37.657Z,17.27
2019-04-21T20:56:02.421Z,17.15
2019-04-21T20:58:37.266Z,17.12
2019-04-21T21:01:32.977Z,17.07
2019-04-21T21:03:35.083Z,16.89
2019-04-21T21:05:58.363Z,16.94
2019-04-21T21:08:35.849Z,16.85
2019-04-21T21:10:57.505Z,16.83
2019-04-21T21:13:39.481Z,16.72
2019-04-21T21:16:11.898Z,16.74
2019-04-21T21:18:52.287Z,16.81
2019-04-21T21:20:59.097Z,16.74
2019-04-21T21:23:26.027Z,16.57
2019-04-21T21:25:55.464Z,16.49
2019-04-21T21:28:22.606Z,16.38
2019-04-21T21:30:53.061Z,16.28
2019-04-21T21:33:25.694Z,16.31
2019-04-21T21:35:49.459Z,16.09
2019-04-21T21:38:21.943Z,16.11
2019-04-21T21:40:45.521Z,16.08
2019-04-21T21:43:08.139Z,15.96
2019-04-21T21:45:39.478Z,16.00
2019-04-21T21:48:18.761Z,16.00
2019-04-21T21:50:42.367Z,16.04
2019-04-21T21:53:04.210Z,15.87
2019-04-21T21:55:27.680Z,15.90
2019-04-21T21:57:58.798Z,15.68
2019-04-21T22:00:26.248Z,15.73
2019-04-21T22:02:56.871Z,15.58
2019-04-21T22:05:26.012Z,15.51
2019-04-21T22:07:52.235Z,15.53
2019-04-21T22:10:20.142Z,15.53
2019-04-21T22:12:55.428Z,15.50
2019-04-21T22:15:22.235Z,15.42
2019-04-21T22:18:07.551Z,15.48
2019-04-21T22:20:33.335Z,15.44
2019-04-21T22:22:54.250Z,15.45
2019-04-21T22:25:20.737Z,15.33
2019-04-21T22:27:43.457Z,15.30
2019-04-21T22:30:14.669Z,15.21
2019-04-21T22:32:50.246Z,15.19
2019-04-21T22:35:22.331Z,15.18
2019-04-21T22:37:51.126Z,15.06
2019-04-21T22:40:21.918Z,15.00
2019-04-21T22:42:47.436Z,14.99
2019-04-21T22:45:09.186Z,14.97
2019-04-21T22:47:39.533Z,14.97
2019-04-21T22:50:08.539Z,14.90
2019-04-21T22:52:35.680Z,14.91
2019-04-21T22:55:08.311Z,14.85
2019-04-21T22:57:36.625Z,14.78
2019-04-21T23:00:03.906Z,14.78
2019-04-21T23:02:33.312Z,14.80
2019-04-21T23:05:00.546Z,14.75
2019-04-21T23:07:28.208Z,14.73
2019-04-21T23:09:55.531Z,14.83
2019-04-21T23:12:28.251Z,14.75
2019-04-21T23:14:58.524Z,14.66
2019-04-21T23:17:37.836Z,14.64
2019-04-21T23:20:13.269Z,14.60
2019-04-21T23:22:49.369Z,14.53
2019-04-21T23:25:09.419Z,14.56
2019-04-21T23:27:33.376Z,14.51
2019-04-21T23:30:06.397Z,14.47
2019-04-21T23:32:29.493Z,14.40
2019-04-21T23:34:44.172Z,14.41
2019-04-21T23:37:16.634Z,14.37
2019-04-21T23:39:41.545Z,14.32
2019-04-21T23:42:09.173Z,14.29
2019-04-21T23:44:41.519Z,14.24
2019-04-21T23:47:08.595Z,14.17
2019-04-21T23:49:46.206Z,14.14
2019-04-21T23:52:08.156Z,14.10
2019-04-21T23:54:33.405Z,14.10
2019-04-21T23:57:02.891Z,14.07
2019-04-21T23:59:32.842Z,14.05
